Time;durP1;ratioP1;P1;durP2;ratioP2;P2;SDS_P1;SDS_P2;PMS_P1;PMS_P2;Temp;Humidity;BMP_temperature;BMP_pressure;BME280_temperature;BME280_humidity;BME280_pressure;Samples;Min_cycle;Max_cycle;Signal;HPM_P1;HPM_P2
2024/03/08 00:00:46;;;;;;;11.57;3.78;;;;;;;;;;2101278;28;20051;-76
2024/03/08 00:02:05;;;;;;;7.68;3.47;;;;;;;;;;2103287;28;20028;-74
2024/03/08 00:03:24;;;;;;;5.53;3.45;;;;;;;;;;2095673;28;20025;-74
2024/03/08 00:04:44;;;;;;;10.43;3.33;;;;;;;;;;2090768;28;20394;-74
2024/03/08 00:06:04;;;;;;;13.23;3.97;;;;;;;;;;2101082;28;20028;-73
2024/03/08 00:07:23;;;;;;;7.38;3.35;;;;;;;;;;2104632;28;20024;-73
2024/03/08 00:08:42;;;;;;;6.18;3.70;;;;;;;;;;2094820;28;20041;-73
2024/03/08 00:10:02;;;;;;;5.78;3.90;;;;;;;;;;2101619;28;20036;-74
2024/03/08 00:11:21;;;;;;;9.75;3.70;;;;;;;;;;2095098;28;20029;-74
2024/03/08 00:12:43;;;;;;;6.82;3.47;;;;;;;;;;2100860;28;20454;-74
2024/03/08 00:14:06;;;;;;;11.27;3.80;;;;;;;;;;2094668;28;20056;-74
2024/03/08 00:15:25;;;;;;;12.75;3.67;;;;;;;;;;2095295;28;20505;-74
2024/03/08 00:16:44;;;;;;;8.95;3.63;;;;;;;;;;2100723;28;20028;-74
2024/03/08 00:18:04;;;;;;;6.20;3.80;;;;;;;;;;2103522;28;20103;-74
2024/03/08 00:19:22;;;;;;;9.90;3.88;;;;;;;;;;2094642;28;20509;-74
2024/03/08 00:20:41;;;;;;;4.35;3.33;;;;;;;;;;2100390;28;20114;-74
2024/03/08 00:22:00;;;;;;;7.35;3.25;;;;;;;;;;2095830;28;20525;-74
2024/03/08 00:23:19;;;;;;;5.80;3.38;;;;;;;;;;2100042;28;20123;-74
2024/03/08 00:24:37;;;;;;;16.05;3.67;;;;;;;;;;2104581;28;20028;-75
2024/03/08 00:25:56;;;;;;;18.77;4.30;;;;;;;;;;2094914;28;20504;-74
2024/03/08 00:27:15;;;;;;;16.67;4.35;;;;;;;;;;2100188;28;20055;-76
2024/03/08 00:28:34;;;;;;;18.17;4.10;;;;;;;;;;2104193;28;20024;-74
2024/03/08 00:29:53;;;;;;;12.82;3.83;;;;;;;;;;2102127;28;20032;-73
2024/03/08 00:31:13;;;;;;;13.50;3.80;;;;;;;;;;2103645;28;20013;-74
2024/03/08 00:32:32;;;;;;;11.48;3.85;;;;;;;;;;2103097;28;20024;-74
2024/03/08 00:33:52;;;;;;;8.40;3.85;;;;;;;;;;2102334;28;20024;-74
2024/03/08 00:35:12;;;;;;;15.50;3.65;;;;;;;;;;2100741;28;20031;-73
2024/03/08 00:36:31;;;;;;;10.63;3.67;;;;;;;;;;2093603;28;20060;-75
2024/03/08 00:37:50;;;;;;;4.80;3.00;;;;;;;;;;2099949;28;20532;-74
2024/03/08 00:39:09;;;;;;;5.97;3.17;;;;;;;;;;2102571;28;20047;-74
2024/03/08 00:40:28;;;;;;;8.18;3.25;;;;;;;;;;2102546;28;20185;-74
2024/03/08 00:41:49;;;;;;;4.60;2.08;;;;;;;;;;2094741;28;20525;-74
2024/03/08 00:43:07;;;;;;;4.57;2.78;;;;;;;;;;2100044;28;20497;-74
2024/03/08 00:44:26;;;;;;;7.65;2.60;;;;;;;;;;2096032;28;20029;-74
2024/03/08 00:45:45;;;;;;;8.23;2.92;;;;;;;;;;2099251;28;20524;-73
2024/03/08 00:47:04;;;;;;;10.90;4.00;;;;;;;;;;2102462;28;20032;-74
2024/03/08 00:48:24;;;;;;;6.03;2.70;;;;;;;;;;2103913;28;20543;-74
2024/03/08 00:49:43;;;;;;;3.70;2.88;;;;;;;;;;2104608;28;20107;-74
2024/03/08 00:51:02;;;;;;;5.85;3.53;;;;;;;;;;2104319;28;20021;-76
2024/03/08 00:52:21;;;;;;;9.73;3.53;;;;;;;;;;2103420;28;20016;-74
2024/03/08 00:53:39;;;;;;;13.43;3.95;;;;;;;;;;2102833;28;20032;-74
2024/03/08 00:54:58;;;;;;;8.98;3.78;;;;;;;;;;2093911;28;20021;-74
2024/03/08 00:56:17;;;;;;;7.55;3.10;;;;;;;;;;2090749;28;20475;-74
2024/03/08 00:57:36;;;;;;;12.50;3.92;;;;;;;;;;2091397;28;20557;-74
2024/03/08 00:58:55;;;;;;;16.30;3.67;;;;;;;;;;2098393;28;20052;-74
2024/03/08 01:00:14;;;;;;;7.30;3.58;;;;;;;;;;2103209;28;20032;-74
2024/03/08 01:01:33;;;;;;;9.30;3.28;;;;;;;;;;2094767;28;20045;-74
2024/03/08 01:02:52;;;;;;;9.38;3.58;;;;;;;;;;2099580;28;20416;-74
2024/03/08 01:04:11;;;;;;;12.65;3.58;;;;;;;;;;2104249;28;20063;-74
2024/03/08 01:05:30;;;;;;;3.90;3.03;;;;;;;;;;2094888;28;20104;-75
2024/03/08 01:06:49;;;;;;;4.80;2.83;;;;;;;;;;2090868;28;20033;-73
2024/03/08 01:08:09;;;;;;;6.60;3.50;;;;;;;;;;2099527;28;20028;-73
2024/03/08 01:09:28;;;;;;;9.05;3.63;;;;;;;;;;2094264;28;20675;-74
2024/03/08 01:10:47;;;;;;;6.43;3.70;;;;;;;;;;2099377;28;20040;-74
2024/03/08 01:12:07;;;;;;;11.57;3.47;;;;;;;;;;2101447;28;20024;-73
2024/03/08 01:13:26;;;;;;;13.68;3.70;;;;;;;;;;2103053;28;20048;-73
2024/03/08 01:14:45;;;;;;;8.70;3.08;;;;;;;;;;2104792;28;20028;-73
2024/03/08 01:16:04;;;;;;;8.10;3.10;;;;;;;;;;2104041;28;20385;-74
2024/03/08 01:17:24;;;;;;;5.13;3.17;;;;;;;;;;2095379;28;20036;-74
2024/03/08 01:18:43;;;;;;;3.80;3.30;;;;;;;;;;2100517;28;20032;-73
2024/03/08 01:20:03;;;;;;;5.13;2.88;;;;;;;;;;2103055;28;20487;-74
2024/03/08 01:21:22;;;;;;;11.43;2.78;;;;;;;;;;2104280;28;20111;-73
2024/03/08 01:22:41;;;;;;;8.82;3.33;;;;;;;;;;2091137;28;20052;-73
2024/03/08 01:24:00;;;;;;;5.25;2.88;;;;;;;;;;2099053;28;20032;-73
2024/03/08 01:25:19;;;;;;;8.23;3.72;;;;;;;;;;2102466;28;20404;-73
2024/03/08 01:26:38;;;;;;;4.10;2.78;;;;;;;;;;2094243;28;20025;-74
2024/03/08 01:27:57;;;;;;;5.20;2.90;;;;;;;;;;2099593;28;20032;-73
2024/03/08 01:29:17;;;;;;;8.15;2.53;;;;;;;;;;2104250;28;20029;-73
2024/03/08 01:30:37;;;;;;;5.75;3.03;;;;;;;;;;2101208;28;20024;-74
2024/03/08 01:31:56;;;;;;;3.15;2.60;;;;;;;;;;2102765;28;20430;-74
2024/03/08 01:33:15;;;;;;;5.90;2.90;;;;;;;;;;2103673;28;20033;-74
2024/03/08 01:34:34;;;;;;;6.22;3.05;;;;;;;;;;2094706;28;20032;-76
2024/03/08 01:35:53;;;;;;;9.48;2.72;;;;;;;;;;2098454;28;20056;-74
2024/03/08 01:37:14;;;;;;;4.75;2.72;;;;;;;;;;2104503;28;20040;-79
2024/03/08 01:38:33;;;;;;;5.10;2.70;;;;;;;;;;2103769;28;20036;-77
2024/03/08 01:39:52;;;;;;;8.35;2.97;;;;;;;;;;2093454;28;20044;-77
2024/03/08 01:41:13;;;;;;;5.35;2.78;;;;;;;;;;2100863;28;20024;-77
2024/03/08 01:42:32;;;;;;;3.90;2.70;;;;;;;;;;2105291;28;20046;-80
2024/03/08 01:43:52;;;;;;;10.48;2.58;;;;;;;;;;2104964;28;20044;-78
2024/03/08 01:45:11;;;;;;;9.32;2.70;;;;;;;;;;2104958;28;20465;-78
2024/03/08 01:46:31;;;;;;;9.13;3.13;;;;;;;;;;2104506;28;20032;-78
2024/03/08 01:47:49;;;;;;;3.28;2.60;;;;;;;;;;2105017;28;20024;-77
2024/03/08 01:49:08;;;;;;;5.82;2.40;;;;;;;;;;2105264;28;20050;-77
2024/03/08 01:50:28;;;;;;;4.50;3.00;;;;;;;;;;2103631;28;20055;-77
2024/03/08 01:51:48;;;;;;;5.78;2.72;;;;;;;;;;2104665;28;20029;-78
2024/03/08 01:53:07;;;;;;;9.23;2.65;;;;;;;;;;2092891;28;20020;-78
2024/03/08 01:54:26;;;;;;;5.72;2.50;;;;;;;;;;2098950;28;20028;-78
2024/03/08 01:55:47;;;;;;;5.25;2.58;;;;;;;;;;2091699;28;20100;-79
2024/03/08 01:57:06;;;;;;;2.83;2.53;;;;;;;;;;2100226;28;20103;-78
2024/03/08 01:58:28;;;;;;;6.38;2.60;;;;;;;;;;2104045;28;20044;-79
2024/03/08 01:59:47;;;;;;;6.32;2.67;;;;;;;;;;2100636;28;20020;-78
2024/03/08 02:01:07;;;;;;;4.38;2.22;;;;;;;;;;2104564;28;20125;-79
2024/03/08 02:02:27;;;;;;;7.13;2.67;;;;;;;;;;2095632;28;20064;-79
2024/03/08 02:03:46;;;;;;;4.53;2.40;;;;;;;;;;2101743;28;20036;-80
2024/03/08 02:05:05;;;;;;;10.25;2.58;;;;;;;;;;2105272;28;20025;-80
2024/03/08 02:06:24;;;;;;;3.55;2.47;;;;;;;;;;2104950;28;20115;-79
2024/03/08 02:07:44;;;;;;;2.55;2.35;;;;;;;;;;2104439;28;20024;-79
2024/03/08 02:09:05;;;;;;;3.55;2.60;;;;;;;;;;2104750;28;20028;-80
2024/03/08 02:10:24;;;;;;;3.15;2.50;;;;;;;;;;2105500;28;20032;-79
2024/03/08 02:11:43;;;;;;;3.10;2.25;;;;;;;;;;2105134;28;20489;-79
2024/03/08 02:13:02;;;;;;;3.20;2.45;;;;;;;;;;2104512;28;20040;-78
2024/03/08 02:14:21;;;;;;;6.38;2.75;;;;;;;;;;2095475;28;20060;-79
2024/03/08 02:15:50;;;;;;;7.43;2.70;;;;;;;;;;2101281;28;20489;-80
2024/03/08 02:17:09;;;;;;;5.05;2.08;;;;;;;;;;2105055;28;20024;-78
2024/03/08 02:18:28;;;;;;;3.80;2.45;;;;;;;;;;2105108;28;20016;-79
2024/03/08 02:19:48;;;;;;;5.20;2.78;;;;;;;;;;2104651;28;20020;-80
2024/03/08 02:21:08;;;;;;;3.42;2.47;;;;;;;;;;2104334;28;20020;-78
2024/03/08 02:22:31;;;;;;;4.45;2.35;;;;;;;;;;2105633;28;20036;-79
2024/03/08 02:23:52;;;;;;;5.25;2.35;;;;;;;;;;2103327;28;20024;-78
2024/03/08 02:25:11;;;;;;;3.60;2.63;;;;;;;;;;2105484;28;20483;-79
2024/03/08 02:26:30;;;;;;;4.72;2.38;;;;;;;;;;2104289;28;20071;-81
2024/03/08 02:27:48;;;;;;;7.88;2.80;;;;;;;;;;2105261;28;20046;-79
2024/03/08 02:29:08;;;;;;;4.15;2.50;;;;;;;;;;2105924;28;20103;-79
2024/03/08 02:30:29;;;;;;;7.68;2.58;;;;;;;;;;2104385;28;20085;-78
2024/03/08 02:31:50;;;;;;;5.13;2.80;;;;;;;;;;2104987;28;20415;-79
2024/03/08 02:33:09;;;;;;;7.57;2.10;;;;;;;;;;2103910;28;20481;-81
2024/03/08 02:34:29;;;;;;;4.55;2.38;;;;;;;;;;2096019;28;20036;-78
2024/03/08 02:35:49;;;;;;;2.75;2.30;;;;;;;;;;2100056;28;20028;-81
2024/03/08 02:37:08;;;;;;;6.05;2.80;;;;;;;;;;2104500;28;20492;-80
2024/03/08 02:38:28;;;;;;;2.60;2.20;;;;;;;;;;2104356;28;20032;-79
2024/03/08 02:39:47;;;;;;;5.07;2.40;;;;;;;;;;2103182;28;20028;-80
2024/03/08 02:41:06;;;;;;;4.18;2.42;;;;;;;;;;2104518;28;20024;-79
2024/03/08 02:42:25;;;;;;;4.57;2.40;;;;;;;;;;2105169;28;20441;-79
2024/03/08 02:43:45;;;;;;;8.00;2.38;;;;;;;;;;2104994;28;20063;-79
2024/03/08 02:45:05;;;;;;;2.20;1.98;;;;;;;;;;2103884;28;20024;-79
2024/03/08 02:46:24;;;;;;;4.40;2.42;;;;;;;;;;2104289;28;20032;-79
2024/03/08 02:47:43;;;;;;;3.03;2.28;;;;;;;;;;2095753;28;20041;-76
2024/03/08 02:49:02;;;;;;;3.50;2.63;;;;;;;;;;2098319;28;20055;-76
2024/03/08 02:50:22;;;;;;;4.40;2.67;;;;;;;;;;2095318;28;20025;-77
2024/03/08 02:51:41;;;;;;;7.15;3.33;;;;;;;;;;2098262;28;20654;-76
2024/03/08 02:53:03;;;;;;;2.45;2.20;;;;;;;;;;2104709;28;20036;-76
2024/03/08 02:54:23;;;;;;;5.95;2.53;;;;;;;;;;2094578;28;20115;-76
2024/03/08 02:55:42;;;;;;;4.82;2.92;;;;;;;;;;2091974;28;20033;-76
2024/03/08 02:57:03;;;;;;;3.40;2.15;;;;;;;;;;2100745;28;20046;-75
2024/03/08 02:58:23;;;;;;;3.92;2.10;;;;;;;;;;2104339;28;20064;-75
2024/03/08 02:59:42;;;;;;;8.27;2.75;;;;;;;;;;2096578;28;20051;-75
2024/03/08 03:01:01;;;;;;;3.90;2.58;;;;;;;;;;2101266;28;20037;-76
2024/03/08 03:02:20;;;;;;;10.05;2.85;;;;;;;;;;2102507;28;20107;-76
2024/03/08 03:03:38;;;;;;;5.72;2.30;;;;;;;;;;2104036;28;20020;-76
2024/03/08 03:05:02;;;;;;;3.58;2.63;;;;;;;;;;2101980;28;20254;-75
2024/03/08 03:06:21;;;;;;;6.30;3.08;;;;;;;;;;2103736;28;20028;-75
2024/03/08 03:07:40;;;;;;;4.63;2.03;;;;;;;;;;2091410;28;20021;-76
2024/03/08 03:08:59;;;;;;;3.55;2.35;;;;;;;;;;2098302;28;20492;-77
2024/03/08 03:10:18;;;;;;;4.05;2.35;;;;;;;;;;2104973;28;20477;-76
2024/03/08 03:11:37;;;;;;;2.60;2.40;;;;;;;;;;2094580;28;20021;-77
2024/03/08 03:12:56;;;;;;;8.23;2.63;;;;;;;;;;2099140;28;20485;-77
2024/03/08 03:14:16;;;;;;;4.65;2.53;;;;;;;;;;2103505;28;20497;-75
2024/03/08 03:15:36;;;;;;;3.55;2.90;;;;;;;;;;2102929;28;20036;-76
2024/03/08 03:16:55;;;;;;;6.63;2.72;;;;;;;;;;2104362;28;20028;-77
2024/03/08 03:18:15;;;;;;;5.13;2.60;;;;;;;;;;2103647;28;20122;-75
2024/03/08 03:19:35;;;;;;;5.43;2.33;;;;;;;;;;2095003;28;20021;-76
2024/03/08 03:20:54;;;;;;;4.28;2.30;;;;;;;;;;2100908;28;20032;-76
2024/03/08 03:22:13;;;;;;;4.65;2.58;;;;;;;;;;2102745;28;20042;-76
2024/03/08 03:23:33;;;;;;;6.60;2.25;;;;;;;;;;2095111;28;20024;-76
2024/03/08 03:24:53;;;;;;;5.53;2.45;;;;;;;;;;2091044;28;20029;-76
2024/03/08 03:26:12;;;;;;;5.43;2.53;;;;;;;;;;2091759;28;20739;-75
2024/03/08 03:27:32;;;;;;;4.72;2.65;;;;;;;;;;2102340;28;20017;-77
2024/03/08 03:28:51;;;;;;;3.95;2.65;;;;;;;;;;2096133;28;20037;-76
2024/03/08 03:30:23;;;;;;;4.47;2.38;;;;;;;;;;2090514;28;20525;-76
2024/03/08 03:31:42;;;;;;;4.28;2.40;;;;;;;;;;2102274;28;20040;-77
2024/03/08 03:33:06;;;;;;;5.15;2.92;;;;;;;;;;2092707;28;20024;-76
2024/03/08 03:34:25;;;;;;;4.78;2.67;;;;;;;;;;2099822;28;20020;-76
2024/03/08 03:35:45;;;;;;;4.90;2.58;;;;;;;;;;2094989;28;20032;-76
2024/03/08 03:37:04;;;;;;;4.68;2.60;;;;;;;;;;2100721;28;20016;-76
2024/03/08 03:38:25;;;;;;;5.82;2.88;;;;;;;;;;2103172;28;20020;-76
2024/03/08 03:39:48;;;;;;;3.25;2.38;;;;;;;;;;2094341;28;20030;-75
2024/03/08 03:41:10;;;;;;;;;;;;;;;;;;2102048;28;20477;-76
2024/03/08 03:42:29;;;;;;;2.80;2.60;;;;;;;;;;2105744;28;19904;-76
2024/03/08 03:43:49;;;;;;;6.15;2.90;;;;;;;;;;2103662;28;20032;-76
2024/03/08 03:45:09;;;;;;;6.95;3.05;;;;;;;;;;2102412;28;20020;-76
2024/03/08 03:46:29;;;;;;;2.50;2.30;;;;;;;;;;2103153;28;20020;-76
2024/03/08 03:47:48;;;;;;;5.35;2.60;;;;;;;;;;2092136;28;20497;-76
2024/03/08 03:49:07;;;;;;;4.72;2.65;;;;;;;;;;2100915;28;20325;-76
2024/03/08 03:50:26;;;;;;;6.88;3.17;;;;;;;;;;2104799;28;20024;-76
2024/03/08 03:51:46;;;;;;;6.78;3.00;;;;;;;;;;2103366;28;20481;-76
2024/03/08 03:53:08;;;;;;;10.57;2.97;;;;;;;;;;2103233;28;20028;-76
2024/03/08 03:54:29;;;;;;;5.07;2.63;;;;;;;;;;2103199;28;20032;-76
2024/03/08 03:55:48;;;;;;;12.25;2.95;;;;;;;;;;2093691;28;20451;-76
2024/03/08 03:57:08;;;;;;;9.60;2.58;;;;;;;;;;2098928;28;20028;-76
2024/03/08 03:58:27;;;;;;;6.65;2.65;;;;;;;;;;2104321;28;20393;-76
2024/03/08 03:59:47;;;;;;;6.13;3.28;;;;;;;;;;2094112;28;20033;-75
2024/03/08 04:01:06;;;;;;;4.10;2.70;;;;;;;;;;2095742;28;20100;-76
2024/03/08 04:02:26;;;;;;;7.38;2.45;;;;;;;;;;2100350;28;20115;-76
2024/03/08 04:03:45;;;;;;;4.80;2.72;;;;;;;;;;2095458;28;20056;-76
2024/03/08 04:05:07;;;;;;;11.05;3.28;;;;;;;;;;2091921;28;20037;-77
2024/03/08 04:06:26;;;;;;;5.63;3.03;;;;;;;;;;2101695;28;20078;-76
2024/03/08 04:07:45;;;;;;;4.07;2.88;;;;;;;;;;2095300;28;20035;-75
2024/03/08 04:09:07;;;;;;;3.30;3.00;;;;;;;;;;2100848;28;20107;-75
2024/03/08 04:10:26;;;;;;;3.77;2.63;;;;;;;;;;2104714;28;20020;-77
2024/03/08 04:11:46;;;;;;;6.88;3.30;;;;;;;;;;2104533;28;20237;-76
2024/03/08 04:13:05;;;;;;;4.63;3.05;;;;;;;;;;2103008;28;20048;-77
2024/03/08 04:14:24;;;;;;;4.78;2.92;;;;;;;;;;2101781;28;20028;-77
2024/03/08 04:15:48;;;;;;;3.90;3.10;;;;;;;;;;2104230;28;20439;-76
2024/03/08 04:17:08;;;;;;;3.22;2.92;;;;;;;;;;2104623;28;20051;-75
2024/03/08 04:18:28;;;;;;;6.10;3.17;;;;;;;;;;2103770;28;20396;-76
2024/03/08 04:19:48;;;;;;;4.97;2.90;;;;;;;;;;2095336;28;20036;-76
2024/03/08 04:21:07;;;;;;;3.72;3.08;;;;;;;;;;2099551;28;20115;-77
2024/03/08 04:22:28;;;;;;;3.38;2.67;;;;;;;;;;2105232;28;20023;-76
2024/03/08 04:23:47;;;;;;;6.90;3.08;;;;;;;;;;2100255;28;20040;-76
2024/03/08 04:25:07;;;;;;;4.68;3.22;;;;;;;;;;2104984;28;20028;-76
2024/03/08 04:26:25;;;;;;;5.95;3.33;;;;;;;;;;2095272;28;20412;-76
2024/03/08 04:27:46;;;;;;;5.50;3.15;;;;;;;;;;2091610;28;20028;-76
2024/03/08 04:29:06;;;;;;;4.32;2.90;;;;;;;;;;2101351;28;20048;-76
2024/03/08 04:30:28;;;;;;;4.15;3.03;;;;;;;;;;2104684;28;20517;-75
2024/03/08 04:31:47;;;;;;;4.50;2.90;;;;;;;;;;2104482;28;20024;-76
2024/03/08 04:33:06;;;;;;;4.78;3.03;;;;;;;;;;2093766;28;20115;-77
2024/03/08 04:34:28;;;;;;;5.93;3.22;;;;;;;;;;2092667;28;20028;-76
2024/03/08 04:35:47;;;;;;;5.80;3.65;;;;;;;;;;2100222;28;20024;-76
2024/03/08 04:37:06;;;;;;;8.10;3.08;;;;;;;;;;2094867;28;20033;-75
2024/03/08 04:38:26;;;;;;;4.32;3.00;;;;;;;;;;2100449;28;20028;-76
2024/03/08 04:39:45;;;;;;;3.63;3.05;;;;;;;;;;2104405;28;20028;-75
2024/03/08 04:41:05;;;;;;;3.88;3.47;;;;;;;;;;2103833;28;20024;-76
2024/03/08 04:42:24;;;;;;;4.10;3.17;;;;;;;;;;2101983;28;20024;-76
2024/03/08 04:43:43;;;;;;;5.28;3.40;;;;;;;;;;2103584;28;20123;-76
2024/03/08 04:45:04;;;;;;;3.85;3.45;;;;;;;;;;2105743;28;20432;-76
2024/03/08 04:46:23;;;;;;;4.90;3.38;;;;;;;;;;2103826;28;20020;-75
2024/03/08 04:47:42;;;;;;;8.80;3.35;;;;;;;;;;2104772;28;20032;-75
2024/03/08 04:49:01;;;;;;;5.38;3.30;;;;;;;;;;2094509;28;20025;-75
2024/03/08 04:50:20;;;;;;;7.00;3.40;;;;;;;;;;2100844;28;20032;-77
2024/03/08 04:51:40;;;;;;;5.63;3.58;;;;;;;;;;2095536;28;20020;-75
2024/03/08 04:52:58;;;;;;;6.35;3.28;;;;;;;;;;2098210;28;20020;-76
2024/03/08 04:54:18;;;;;;;5.03;3.58;;;;;;;;;;2095329;28;20115;-77
2024/03/08 04:55:38;;;;;;;4.47;3.65;;;;;;;;;;2084911;28;20033;-75
2024/03/08 04:56:57;;;;;;;5.07;3.53;;;;;;;;;;2096858;28;20028;-76
2024/03/08 04:58:15;;;;;;;6.22;3.22;;;;;;;;;;2096043;28;20029;-76
2024/03/08 04:59:34;;;;;;;3.85;3.10;;;;;;;;;;2100301;28;20020;-75
2024/03/08 05:00:53;;;;;;;5.82;3.22;;;;;;;;;;2102775;28;20028;-75
2024/03/08 05:02:12;;;;;;;4.00;3.53;;;;;;;;;;2104163;28;20516;-76
2024/03/08 05:03:31;;;;;;;6.45;3.22;;;;;;;;;;2105422;28;20028;-76
2024/03/08 05:04:50;;;;;;;8.70;3.58;;;;;;;;;;2095857;28;20033;-75
2024/03/08 05:06:09;;;;;;;3.75;3.30;;;;;;;;;;2098871;28;20036;-77
2024/03/08 05:07:28;;;;;;;7.70;3.22;;;;;;;;;;2104760;28;20025;-75
2024/03/08 05:08:49;;;;;;;3.53;2.83;;;;;;;;;;2105212;28;20032;-75
2024/03/08 05:10:08;;;;;;;5.45;4.00;;;;;;;;;;2104725;28;20060;-74
2024/03/08 05:11:28;;;;;;;4.32;3.80;;;;;;;;;;2104755;28;20028;-74
2024/03/08 05:12:48;;;;;;;6.30;3.85;;;;;;;;;;2105232;28;20028;-74
2024/03/08 05:14:06;;;;;;;7.38;3.65;;;;;;;;;;2105194;28;20028;-74
2024/03/08 05:15:25;;;;;;;5.22;3.15;;;;;;;;;;2105703;28;20069;-75
2024/03/08 05:16:50;;;;;;;3.42;3.10;;;;;;;;;;2107186;28;20036;-75
2024/03/08 05:18:11;;;;;;;5.22;3.35;;;;;;;;;;2097066;28;20029;-73
2024/03/08 05:19:30;;;;;;;7.50;4.32;;;;;;;;;;2093907;28;20032;-74
2024/03/08 05:20:50;;;;;;;7.25;4.10;;;;;;;;;;2101591;28;20036;-74
2024/03/08 05:22:09;;;;;;;8.50;3.90;;;;;;;;;;2096348;28;20029;-74
2024/03/08 05:23:29;;;;;;;5.78;3.83;;;;;;;;;;2102777;28;20068;-75
2024/03/08 05:24:48;;;;;;;7.60;3.72;;;;;;;;;;2093869;28;20032;-75
2024/03/08 05:26:06;;;;;;;10.10;4.53;;;;;;;;;;2093731;28;20123;-74
2024/03/08 05:27:25;;;;;;;6.85;3.50;;;;;;;;;;2097236;28;20501;-75
2024/03/08 05:28:44;;;;;;;5.25;3.90;;;;;;;;;;2093898;28;20537;-74
2024/03/08 05:30:04;;;;;;;11.65;4.20;;;;;;;;;;2102786;28;20024;-73
2024/03/08 05:31:23;;;;;;;6.38;3.75;;;;;;;;;;2105446;28;20552;-76
2024/03/08 05:32:45;;;;;;;6.32;4.03;;;;;;;;;;2096530;28;20029;-75
2024/03/08 05:34:04;;;;;;;5.80;4.43;;;;;;;;;;2097157;28;20024;-74
2024/03/08 05:35:24;;;;;;;6.03;4.20;;;;;;;;;;2092405;28;20028;-75
2024/03/08 05:36:54;;;;;;;5.63;4.18;;;;;;;;;;2096280;28;20489;-74
2024/03/08 05:38:14;;;;;;;4.88;4.38;;;;;;;;;;2100225;28;20043;-75
2024/03/08 05:39:33;;;;;;;4.85;4.03;;;;;;;;;;2102318;28;20020;-76
2024/03/08 05:40:52;;;;;;;9.40;4.32;;;;;;;;;;2093080;28;20401;-74
2024/03/08 05:42:11;;;;;;;8.95;3.78;;;;;;;;;;2085269;28;20036;-76
2024/03/08 05:43:30;;;;;;;8.00;4.30;;;;;;;;;;2098385;28;20492;-74
2024/03/08 05:44:49;;;;;;;12.27;4.60;;;;;;;;;;2095239;28;20032;-78
2024/03/08 05:46:08;;;;;;;7.82;4.57;;;;;;;;;;2101891;28;20087;-76
2024/03/08 05:47:27;;;;;;;9.90;4.50;;;;;;;;;;2106097;28;20028;-77
2024/03/08 05:48:46;;;;;;;8.30;4.28;;;;;;;;;;2105237;28;20148;-76
2024/03/08 05:50:07;;;;;;;10.45;4.53;;;;;;;;;;2105997;28;20178;-76
2024/03/08 05:51:27;;;;;;;6.38;4.15;;;;;;;;;;2095556;28;20080;-75
2024/03/08 05:52:47;;;;;;;6.40;4.28;;;;;;;;;;2102070;28;20024;-75
2024/03/08 05:54:09;;;;;;;13.57;4.50;;;;;;;;;;2106141;28;20082;-75
2024/03/08 05:55:29;;;;;;;9.30;4.40;;;;;;;;;;2105237;28;20032;-75
2024/03/08 05:56:48;;;;;;;12.77;4.50;;;;;;;;;;2105711;28;20332;-74
2024/03/08 05:58:07;;;;;;;8.93;4.45;;;;;;;;;;2105812;28;20028;-77
2024/03/08 05:59:30;;;;;;;9.95;4.93;;;;;;;;;;2104235;28;20107;-75
2024/03/08 06:00:49;;;;;;;8.32;4.80;;;;;;;;;;2103811;28;20032;-76
2024/03/08 06:02:09;;;;;;;5.75;4.40;;;;;;;;;;2104658;28;20036;-77
2024/03/08 06:03:28;;;;;;;8.10;4.05;;;;;;;;;;2105890;28;20103;-75
2024/03/08 06:04:47;;;;;;;11.70;4.50;;;;;;;;;;2106934;28;20036;-76
2024/03/08 06:06:07;;;;;;;7.93;4.03;;;;;;;;;;2104616;28;20036;-78
2024/03/08 06:07:26;;;;;;;8.50;4.28;;;;;;;;;;2103555;28;20060;-76
2024/03/08 06:08:47;;;;;;;6.88;4.32;;;;;;;;;;2105570;28;20032;-75
2024/03/08 06:10:10;;;;;;;5.28;4.10;;;;;;;;;;2096140;28;20565;-77
2024/03/08 06:11:30;;;;;;;10.93;4.35;;;;;;;;;;2093984;28;20393;-76
2024/03/08 06:12:50;;;;;;;6.45;4.50;;;;;;;;;;2092690;28;20028;-77
2024/03/08 06:14:10;;;;;;;10.90;4.70;;;;;;;;;;2101949;28;20020;-75
2024/03/08 06:15:29;;;;;;;7.30;4.28;;;;;;;;;;2105296;28;20071;-76
2024/03/08 06:16:50;;;;;;;12.35;4.72;;;;;;;;;;2106113;28;20119;-79
2024/03/08 06:18:11;;;;;;;5.53;4.13;;;;;;;;;;2095575;28;20036;-79
2024/03/08 06:19:30;;;;;;;8.52;4.13;;;;;;;;;;2096159;28;20025;-77
2024/03/08 06:20:49;;;;;;;7.00;4.22;;;;;;;;;;2101747;28;20050;-75
2024/03/08 06:22:09;;;;;;;8.32;4.13;;;;;;;;;;2095684;28;20063;-79
2024/03/08 06:23:28;;;;;;;6.18;4.40;;;;;;;;;;2089379;28;20033;-78
2024/03/08 06:24:47;;;;;;;6.75;4.40;;;;;;;;;;2101948;28;20032;-76
2024/03/08 06:26:06;;;;;;;7.72;4.13;;;;;;;;;;2106135;28;20036;-76
2024/03/08 06:27:26;;;;;;;8.07;4.00;;;;;;;;;;2103939;28;20027;-76
2024/03/08 06:28:45;;;;;;;5.78;3.97;;;;;;;;;;2103771;28;20020;-76
2024/03/08 06:30:04;;;;;;;7.68;4.28;;;;;;;;;;2105311;28;20107;-77
2024/03/08 06:31:24;;;;;;;7.20;4.40;;;;;;;;;;2103771;28;20060;-77
2024/03/08 06:32:43;;;;;;;8.80;4.53;;;;;;;;;;2105493;28;20028;-78
2024/03/08 06:34:02;;;;;;;8.32;4.45;;;;;;;;;;2105072;28;20056;-77
2024/03/08 06:35:21;;;;;;;6.72;4.20;;;;;;;;;;2095232;28;20028;-77
2024/03/08 06:36:40;;;;;;;5.78;3.90;;;;;;;;;;2101498;28;20028;-76
2024/03/08 06:37:59;;;;;;;8.48;4.38;;;;;;;;;;2104990;28;20451;-77
2024/03/08 06:39:18;;;;;;;7.38;4.13;;;;;;;;;;2096665;28;20033;-76
2024/03/08 06:40:36;;;;;;;12.02;4.53;;;;;;;;;;2091769;28;20033;-78
2024/03/08 06:41:55;;;;;;;9.23;4.82;;;;;;;;;;2099266;28;20024;-78
2024/03/08 06:43:16;;;;;;;6.93;4.72;;;;;;;;;;2105371;28;20040;-77
2024/03/08 06:44:35;;;;;;;9.73;4.47;;;;;;;;;;2105744;28;20050;-77
2024/03/08 06:45:54;;;;;;;9.15;4.70;;;;;;;;;;2096338;28;20528;-78
2024/03/08 06:47:15;;;;;;;7.68;4.72;;;;;;;;;;2091793;28;20025;-78
2024/03/08 06:48:35;;;;;;;6.03;4.20;;;;;;;;;;2092119;28;20025;-79
2024/03/08 06:49:55;;;;;;;25.65;11.70;;;;;;;;;;2101438;28;20020;-81
2024/03/08 06:51:14;;;;;;;13.05;4.88;;;;;;;;;;2105492;28;20028;-77
2024/03/08 06:52:33;;;;;;;7.47;4.45;;;;;;;;;;2095526;28;20033;-77
2024/03/08 06:53:52;;;;;;;8.90;4.38;;;;;;;;;;2099196;28;20040;-78
2024/03/08 06:55:13;;;;;;;8.80;4.13;;;;;;;;;;2103704;28;20016;-77
2024/03/08 06:56:32;;;;;;;10.18;4.20;;;;;;;;;;2104472;28;20028;-75
2024/03/08 06:57:51;;;;;;;10.68;4.80;;;;;;;;;;2101279;28;20490;-76
2024/03/08 06:59:10;;;;;;;7.80;4.50;;;;;;;;;;2102950;28;20490;-76
2024/03/08 07:00:30;;;;;;;9.95;4.72;;;;;;;;;;2104476;28;20071;-76
2024/03/08 07:01:49;;;;;;;6.38;4.00;;;;;;;;;;2104040;28;20485;-76
2024/03/08 07:03:11;;;;;;;10.95;4.93;;;;;;;;;;2105050;28;20040;-76
2024/03/08 07:04:33;;;;;;;7.88;3.97;;;;;;;;;;2104578;28;20172;-77
2024/03/08 07:05:52;;;;;;;11.32;5.38;;;;;;;;;;2095609;28;20021;-77
2024/03/08 07:07:11;;;;;;;4.82;3.85;;;;;;;;;;2101192;28;20449;-77
2024/03/08 07:08:30;;;;;;;15.80;4.60;;;;;;;;;;2105490;28;20028;-76
2024/03/08 07:09:49;;;;;;;15.40;3.90;;;;;;;;;;2105644;28;20024;-76
2024/03/08 07:11:08;;;;;;;7.32;4.47;;;;;;;;;;2103994;28;20028;-77
2024/03/08 07:12:27;;;;;;;10.52;4.65;;;;;;;;;;2105778;28;20028;-77
2024/03/08 07:13:46;;;;;;;10.55;4.50;;;;;;;;;;2105625;28;20036;-76
2024/03/08 07:15:06;;;;;;;10.73;4.70;;;;;;;;;;2105182;28;20154;-76
2024/03/08 07:16:26;;;;;;;7.30;5.20;;;;;;;;;;2105625;28;20024;-77
2024/03/08 07:17:46;;;;;;;11.50;4.35;;;;;;;;;;2105938;28;20024;-76
2024/03/08 07:19:06;;;;;;;10.35;3.90;;;;;;;;;;2104562;28;20481;-76
2024/03/08 07:20:25;;;;;;;9.35;4.80;;;;;;;;;;2104541;28;20032;-76
2024/03/08 07:21:44;;;;;;;8.95;4.25;;;;;;;;;;2105911;28;20028;-77
2024/03/08 07:23:03;;;;;;;8.93;4.47;;;;;;;;;;2096127;28;20082;-77
2024/03/08 07:25:58;;;;;;;9.40;4.07;;;;;;;;;;2105146;28;20114;-76
2024/03/08 07:27:17;;;;;;;10.68;4.00;;;;;;;;;;2106983;28;20016;-78
2024/03/08 07:28:37;;;;;;;9.80;4.38;;;;;;;;;;2105145;28;20020;-77
2024/03/08 07:29:57;;;;;;;8.55;4.65;;;;;;;;;;2105471;28;20031;-78
2024/03/08 07:31:25;;;;;;;13.48;4.95;;;;;;;;;;2096063;28;20020;-78
2024/03/08 07:32:45;;;;;;;5.18;4.60;;;;;;;;;;2102050;28;20032;-78
2024/03/08 07:34:07;;;;;;;10.45;4.55;;;;;;;;;;2104769;28;20024;-78
2024/03/08 07:35:26;;;;;;;10.35;4.80;;;;;;;;;;2105588;28;20032;-78
2024/03/08 07:36:45;;;;;;;6.40;4.07;;;;;;;;;;2095376;28;20044;-78
2024/03/08 07:38:05;;;;;;;6.35;4.00;;;;;;;;;;2095916;28;20036;-79
2024/03/08 07:39:24;;;;;;;9.23;4.80;;;;;;;;;;2101532;28;20028;-82
2024/03/08 07:40:46;;;;;;;6.90;3.95;;;;;;;;;;2096462;28;20029;-78
2024/03/08 07:42:05;;;;;;;9.60;4.10;;;;;;;;;;2093170;28;20024;-78
2024/03/08 07:43:24;;;;;;;8.30;3.95;;;;;;;;;;2092706;28;20036;-78
2024/03/08 07:44:43;;;;;;;6.53;4.38;;;;;;;;;;2101829;28;20082;-78
2024/03/08 07:46:02;;;;;;;18.70;6.07;;;;;;;;;;2096126;28;20029;-78
2024/03/08 07:47:21;;;;;;;8.02;4.47;;;;;;;;;;2100555;28;20028;-78
2024/03/08 07:48:40;;;;;;;6.55;4.28;;;;;;;;;;2104725;28;20024;-77
2024/03/08 07:49:59;;;;;;;7.60;4.05;;;;;;;;;;2107041;28;20028;-78
2024/03/08 07:51:19;;;;;;;10.43;4.43;;;;;;;;;;2096680;28;20125;-78
2024/03/08 07:52:40;;;;;;;11.30;4.57;;;;;;;;;;2102159;28;20385;-78
2024/03/08 07:54:00;;;;;;;9.70;4.10;;;;;;;;;;2103710;28;20053;-78
2024/03/08 07:55:19;;;;;;;9.50;4.57;;;;;;;;;;2104510;28;20021;-78
2024/03/08 07:56:38;;;;;;;14.45;4.15;;;;;;;;;;2105693;28;20032;-78
2024/03/08 07:57:56;;;;;;;8.45;3.90;;;;;;;;;;2096070;28;20021;-78